createdAt,value
2018-05-12T00:02:34.698Z,59.80
2018-05-12T00:07:38.044Z,60.80
2018-05-12T00:12:41.218Z,60.80
2018-05-12T00:17:44.553Z,61.20
2018-05-12T00:22:48.336Z,61.20
2018-05-12T00:27:50.953Z,61.20
2018-05-12T00:32:53.518Z,61.80
2018-05-12T00:37:58.669Z,60.50
2018-05-12T00:43:02.921Z,60.80
2018-05-12T00:48:06.904Z,61.20
2018-05-12T00:53:10.317Z,61.50
2018-05-12T00:58:13.655Z,61.90
2018-05-12T01:03:16.216Z,61.90
2018-05-12T01:08:19.476Z,62.10
2018-05-12T01:13:22.050Z,61.70
2018-05-12T01:18:26.369Z,62.80
2018-05-12T01:23:28.956Z,62.80
2018-05-12T01:28:31.558Z,62.70
2018-05-12T01:33:34.492Z,63.50
2018-05-12T01:38:38.168Z,63.50
2018-05-12T01:43:40.720Z,63.50
2018-05-12T01:48:44.718Z,64.20
2018-05-12T01:53:47.292Z,64.80
2018-05-12T01:58:50.509Z,64.80
2018-05-12T02:03:53.764Z,64.40
2018-05-12T02:08:57.585Z,62.80
2018-05-12T02:14:01.386Z,63.10
2018-05-12T02:19:03.954Z,63.10
2018-05-12T02:24:06.523Z,63.50
2018-05-12T02:29:09.084Z,65.00
2018-05-12T02:34:12.338Z,65.30
2018-05-12T02:39:15.384Z,65.60
2018-05-12T02:44:17.954Z,64.80
2018-05-12T02:49:21.155Z,66.00
2018-05-12T02:54:24.514Z,65.10
2018-05-12T02:59:27.070Z,64.70
2018-05-12T03:04:30.528Z,65.40
2018-05-12T03:09:33.099Z,65.50
2018-05-12T03:14:37.030Z,65.70
2018-05-12T03:19:39.605Z,64.80
2018-05-12T03:24:43.941Z,65.70
2018-05-12T03:29:48.904Z,65.90
2018-05-12T03:34:51.476Z,65.90
2018-05-12T03:39:55.117Z,65.80
2018-05-12T03:44:58.470Z,65.80
2018-05-12T03:50:01.740Z,65.70
2018-05-12T03:55:04.320Z,65.70
2018-05-12T04:00:06.993Z,65.70
2018-05-12T04:11:10.733Z,65.80
2018-05-12T04:16:13.557Z,66.30
2018-05-12T04:21:16.113Z,67.10
2018-05-12T04:26:19.443Z,65.50
2018-05-12T04:31:22.011Z,65.40
2018-05-12T04:36:25.019Z,65.50
2018-05-12T04:41:28.357Z,65.70
2018-05-12T04:46:31.686Z,65.70
2018-05-12T04:51:34.263Z,65.70
2018-05-12T04:56:37.767Z,65.70
2018-05-12T05:01:41.450Z,65.70
2018-05-12T05:06:44.466Z,65.60
2018-05-12T05:11:47.048Z,65.10
2018-05-12T05:16:50.302Z,65.80
2018-05-12T05:21:52.897Z,66.70
2018-05-12T05:26:55.467Z,67.20
2018-05-12T05:31:58.032Z,67.30
2018-05-12T05:37:00.592Z,68.20
2018-05-12T05:42:03.965Z,68.00
2018-05-12T05:47:06.534Z,68.20
2018-05-12T05:52:11.803Z,67.80
2018-05-12T05:57:15.129Z,67.20
2018-05-12T06:02:17.690Z,67.20
2018-05-12T06:07:27.556Z,66.40
2018-05-12T06:12:30.131Z,66.00
2018-05-12T06:17:33.768Z,65.30
2018-05-12T06:22:36.332Z,65.40
2018-05-12T06:27:38.920Z,64.70
2018-05-12T06:32:41.928Z,64.10
2018-05-12T06:37:45.360Z,64.10
2018-05-12T06:42:48.371Z,63.10
2018-05-12T06:47:51.511Z,62.90
2018-05-12T06:52:54.701Z,62.80
2018-05-12T06:57:57.553Z,62.40
2018-05-12T07:03:00.881Z,62.10
2018-05-12T07:08:03.431Z,62.10
2018-05-12T07:13:05.986Z,62.00
2018-05-12T07:18:08.742Z,61.30
2018-05-12T07:23:11.304Z,61.80
2018-05-12T07:28:20.754Z,60.70
2018-05-12T07:33:23.544Z,60.10
2018-05-12T07:38:26.099Z,60.10
2018-05-12T07:43:28.668Z,59.60
2018-05-12T07:48:31.241Z,59.10
2018-05-12T07:53:33.822Z,57.80
2018-05-12T07:58:38.028Z,57.50
2018-05-12T08:03:41.392Z,56.50
2018-05-12T08:08:44.408Z,56.50
2018-05-12T08:13:48.145Z,56.40
2018-05-12T08:18:51.316Z,55.30
2018-05-12T08:23:54.654Z,54.60
2018-05-12T08:28:57.837Z,54.60
2018-05-12T08:34:01.853Z,53.70
2018-05-12T08:39:05.266Z,53.70
2018-05-12T08:44:08.644Z,53.90
2018-05-12T08:49:11.210Z,53.40
2018-05-12T08:54:15.269Z,54.70
2018-05-12T08:59:17.843Z,54.70
2018-05-12T09:04:21.479Z,53.20
2018-05-12T09:09:24.061Z,53.10
2018-05-12T09:14:27.701Z,53.40
2018-05-12T09:19:30.553Z,53.40
2018-05-12T09:24:35.888Z,53.10
2018-05-12T09:29:39.019Z,51.50
2018-05-12T09:34:41.580Z,51.50
2018-05-12T09:39:44.140Z,49.80
2018-05-12T09:44:46.979Z,47.90
2018-05-12T09:49:49.549Z,45.70
2018-05-12T09:54:52.135Z,44.10
2018-05-12T09:59:55.261Z,44.00
2018-05-12T10:04:57.848Z,44.50
2018-05-12T10:10:00.412Z,44.00
2018-05-12T10:15:03.241Z,43.70
2018-05-12T10:20:05.822Z,42.70
2018-05-12T10:25:10.913Z,43.00
2018-05-12T10:30:14.980Z,40.40
2018-05-12T10:35:17.560Z,40.40
2018-05-12T10:40:20.884Z,39.30
2018-05-12T10:45:23.916Z,39.70
2018-05-12T10:50:28.157Z,40.30
2018-05-12T10:55:30.741Z,39.40
2018-05-12T11:00:33.310Z,38.20
2018-05-12T11:05:37.217Z,36.10
2018-05-12T11:10:40.516Z,36.10
2018-05-12T11:15:43.088Z,35.80
2018-05-12T11:20:46.389Z,35.40
2018-05-12T11:25:48.938Z,35.30
2018-05-12T11:30:51.505Z,34.70
2018-05-12T11:35:54.059Z,34.50
2018-05-12T11:40:57.412Z,34.80
2018-05-12T11:45:59.960Z,34.80
2018-05-12T11:51:03.744Z,33.80
2018-05-12T11:56:06.879Z,33.70
2018-05-12T12:01:09.428Z,33.30
2018-05-12T12:06:11.983Z,34.40
2018-05-12T12:11:14.599Z,33.60
2018-05-12T12:16:17.941Z,31.90
2018-05-12T12:21:20.532Z,31.80
2018-05-12T12:26:25.552Z,31.60
2018-05-12T12:31:28.117Z,31.40
2018-05-12T12:36:32.218Z,32.80
2018-05-12T12:41:34.837Z,32.30
2018-05-12T12:46:52.822Z,31.50
2018-05-12T12:51:58.225Z,30.00
2018-05-12T12:57:01.635Z,29.30
2018-05-12T13:02:04.985Z,29.60
2018-05-12T13:07:08.276Z,29.60
2018-05-12T13:12:10.844Z,30.10
2018-05-12T13:17:13.414Z,31.30
2018-05-12T13:22:16.231Z,31.70
2018-05-12T13:27:18.816Z,31.40
2018-05-12T13:32:21.854Z,31.00
2018-05-12T13:37:24.413Z,29.40
2018-05-12T13:42:26.986Z,29.20
2018-05-12T13:47:29.553Z,27.00
2018-05-12T13:52:32.112Z,27.80
2018-05-12T13:57:34.998Z,29.50
2018-05-12T14:02:37.748Z,29.60
2018-05-12T14:07:41.091Z,29.90
2018-05-12T14:12:44.423Z,30.00
2018-05-12T14:17:48.095Z,30.00
2018-05-12T14:22:53.248Z,27.30
2018-05-12T14:27:55.808Z,27.70
2018-05-12T14:32:59.585Z,27.00
2018-05-12T14:38:02.368Z,27.10
2018-05-12T14:43:05.799Z,26.30
2018-05-12T14:48:08.685Z,25.20
2018-05-12T14:53:12.542Z,24.90
2018-05-12T14:58:16.912Z,25.40
2018-05-12T15:03:19.758Z,24.50
2018-05-12T15:08:23.040Z,24.60
2018-05-12T15:13:25.569Z,24.10
2018-05-12T15:18:28.318Z,23.70
2018-05-12T15:23:31.658Z,23.00
2018-05-12T15:28:34.232Z,22.90
2018-05-12T15:33:37.794Z,23.20
2018-05-12T15:38:40.359Z,23.10
2018-05-12T15:43:45.914Z,25.40
2018-05-12T15:48:48.392Z,25.30
2018-05-12T15:53:51.804Z,26.80
2018-05-12T15:58:55.516Z,26.70
2018-05-12T16:03:58.137Z,26.80
2018-05-12T16:09:00.700Z,27.70
2018-05-12T16:14:03.290Z,28.00
2018-05-12T16:19:05.860Z,28.30
2018-05-12T16:24:09.200Z,28.00
2018-05-12T16:29:11.801Z,28.00
2018-05-12T16:34:14.361Z,28.50
2018-05-12T16:39:24.290Z,29.20
2018-05-12T16:44:29.528Z,29.20
2018-05-12T16:49:32.035Z,29.70
2018-05-12T16:54:34.604Z,29.70
2018-05-12T16:59:37.169Z,29.90
2018-05-12T17:04:39.745Z,30.30
2018-05-12T17:09:42.324Z,30.50
2018-05-12T17:14:44.901Z,30.20
2018-05-12T17:19:48.083Z,32.00
2018-05-12T17:24:51.420Z,34.50
2018-05-12T17:29:54.091Z,34.50
2018-05-12T17:40:06.645Z,35.50
2018-05-12T17:45:10.356Z,36.70
2018-05-12T17:50:12.923Z,37.00
2018-05-12T17:55:15.877Z,37.80
2018-05-12T18:00:18.460Z,38.30
2018-05-12T18:05:21.067Z,38.50
2018-05-12T18:10:24.328Z,38.10
2018-05-12T18:15:26.895Z,38.00
2018-05-12T18:20:29.469Z,38.80
2018-05-12T18:25:32.414Z,39.20
2018-05-12T18:30:35.263Z,40.10
2018-05-12T18:35:37.997Z,40.30
2018-05-12T18:40:41.730Z,40.60
2018-05-12T18:45:44.309Z,41.40
2018-05-12T18:50:46.903Z,42.50
2018-05-12T18:55:50.043Z,43.60
2018-05-12T19:00:53.316Z,43.70
2018-05-12T19:05:58.980Z,43.80
2018-05-12T19:11:02.109Z,43.50
2018-05-12T19:16:04.696Z,43.20
2018-05-12T19:21:07.270Z,43.10
2018-05-12T19:26:09.850Z,42.90
2018-05-12T19:31:13.870Z,42.90
2018-05-12T19:36:24.004Z,43.80
2018-05-12T19:41:26.571Z,43.80
2018-05-12T19:46:29.147Z,44.20
2018-05-12T19:51:33.046Z,43.80
2018-05-12T19:56:38.714Z,43.80
2018-05-12T20:01:41.276Z,44.40
2018-05-12T20:06:44.419Z,44.60
2018-05-12T20:11:46.978Z,45.20
2018-05-12T20:16:49.549Z,45.30
2018-05-12T20:21:52.921Z,45.70
2018-05-12T20:26:55.490Z,45.70
2018-05-12T20:31:58.429Z,46.00
2018-05-12T20:37:01.708Z,46.30
2018-05-12T20:42:05.099Z,47.80
2018-05-12T20:47:11.090Z,47.10
2018-05-12T20:52:13.694Z,47.10
2018-05-12T20:57:17.911Z,46.20
2018-05-12T21:02:21.848Z,47.10
2018-05-12T21:07:25.631Z,47.10
2018-05-12T21:12:29.339Z,47.30
2018-05-12T21:17:33.122Z,47.60
2018-05-12T21:22:36.646Z,48.10
2018-05-12T21:27:39.576Z,49.00
2018-05-12T21:32:42.451Z,49.10
2018-05-12T21:37:45.750Z,49.40
2018-05-12T21:42:58.911Z,50.20
2018-05-12T21:48:01.724Z,50.20
2018-05-12T21:53:04.484Z,50.60
2018-05-12T21:58:07.948Z,50.80
2018-05-12T22:03:10.840Z,50.70
2018-05-12T22:08:13.639Z,51.30
2018-05-12T22:18:46.096Z,51.50
2018-05-12T22:24:03.796Z,51.80
2018-05-12T22:29:07.916Z,52.10
2018-05-12T22:34:11.682Z,52.20
2018-05-12T22:39:15.929Z,52.70
2018-05-12T22:44:20.732Z,53.00
2018-05-12T22:49:23.700Z,52.80
2018-05-12T22:54:29.254Z,53.00
2018-05-12T22:59:34.106Z,53.80
